sensor_id;sensor_type;location;lat;lon;timestamp;pressure;altitude;pressure_sealevel;temperature;humidity
72370;BME280;60343;-32.030;115.880;2023-02-10T00:00:42;100954.06;;;28.48;40.79
72370;BME280;60343;-32.030;115.880;2023-02-10T00:03:18;100957.59;;;28.88;40.08
72370;BME280;60343;-32.030;115.880;2023-02-10T00:05:55;100952.53;;;29.00;40.06
72370;BME280;60343;-32.030;115.880;2023-02-10T00:08:30;100949.28;;;29.22;38.64
72370;BME280;60343;-32.030;115.880;2023-02-10T00:11:12;100946.13;;;29.33;38.82
72370;BME280;60343;-32.030;115.880;2023-02-10T00:14:08;100947.72;;;29.39;38.56
72370;BME280;60343;-32.030;115.880;2023-02-10T00:16:43;100949.81;;;29.71;38.04
72370;BME280;60343;-32.030;115.880;2023-02-10T00:19:19;100949.34;;;29.83;36.88
72370;BME280;60343;-32.030;115.880;2023-02-10T00:21:55;100952.53;;;29.95;36.69
72370;BME280;60343;-32.030;115.880;2023-02-10T00:24:30;100958.56;;;30.16;36.07
72370;BME280;60343;-32.030;115.880;2023-02-10T00:27:12;100951.63;;;30.37;36.11
72370;BME280;60343;-32.030;115.880;2023-02-10T00:29:52;100949.75;;;30.51;37.56
72370;BME280;60343;-32.030;115.880;2023-02-10T00:32:27;100950.22;;;30.72;36.38
72370;BME280;60343;-32.030;115.880;2023-02-10T00:35:05;100938.75;;;30.65;36.11
72370;BME280;60343;-32.030;115.880;2023-02-10T00:37:41;100946.75;;;30.66;36.20
72370;BME280;60343;-32.030;115.880;2023-02-10T00:40:16;100950.22;;;30.72;35.92
72370;BME280;60343;-32.030;115.880;2023-02-10T00:42:58;100951.91;;;30.87;34.81
72370;BME280;60343;-32.030;115.880;2023-02-10T00:45:34;100948.72;;;30.47;35.88
72370;BME280;60343;-32.030;115.880;2023-02-10T00:48:09;100945.03;;;30.84;35.76
72370;BME280;60343;-32.030;115.880;2023-02-10T00:50:44;100941.94;;;31.18;35.63
72370;BME280;60343;-32.030;115.880;2023-02-10T00:53:20;100946.16;;;31.57;35.54
72370;BME280;60343;-32.030;115.880;2023-02-10T00:55:55;100940.59;;;31.84;36.03
72370;BME280;60343;-32.030;115.880;2023-02-10T00:58:38;100936.94;;;32.11;34.73
72370;BME280;60343;-32.030;115.880;2023-02-10T01:01:13;100929.91;;;32.27;33.39
72370;BME280;60343;-32.030;115.880;2023-02-10T01:03:49;100929.41;;;32.47;33.98
72370;BME280;60343;-32.030;115.880;2023-02-10T01:06:24;100929.06;;;32.71;33.19
72370;BME280;60343;-32.030;115.880;2023-02-10T01:09:00;100928.94;;;32.76;32.80
72370;BME280;60343;-32.030;115.880;2023-02-10T01:11:36;100926.31;;;32.71;33.00
72370;BME280;60343;-32.030;115.880;2023-02-10T01:14:18;100919.44;;;32.99;30.83
72370;BME280;60343;-32.030;115.880;2023-02-10T01:16:53;100932.31;;;32.95;31.50
72370;BME280;60343;-32.030;115.880;2023-02-10T01:19:29;100931.47;;;33.26;32.58
72370;BME280;60343;-32.030;115.880;2023-02-10T01:22:04;100923.22;;;33.43;31.36
72370;BME280;60343;-32.030;115.880;2023-02-10T01:24:40;100920.16;;;33.61;30.05
72370;BME280;60343;-32.030;115.880;2023-02-10T01:27:15;100931.91;;;33.50;31.46
72370;BME280;60343;-32.030;115.880;2023-02-10T01:29:57;100935.31;;;33.47;31.01
72370;BME280;60343;-32.030;115.880;2023-02-10T01:32:32;100943.16;;;33.45;30.93
72370;BME280;60343;-32.030;115.880;2023-02-10T01:35:08;100942.72;;;33.60;30.44
72370;BME280;60343;-32.030;115.880;2023-02-10T01:37:43;100947.28;;;33.65;31.10
72370;BME280;60343;-32.030;115.880;2023-02-10T01:40:19;100950.84;;;33.48;29.95
72370;BME280;60343;-32.030;115.880;2023-02-10T01:42:54;100947.84;;;33.84;29.92
72370;BME280;60343;-32.030;115.880;2023-02-10T01:45:37;100955.19;;;34.05;29.48
72370;BME280;60343;-32.030;115.880;2023-02-10T01:48:15;100953.59;;;34.22;29.12
72370;BME280;60343;-32.030;115.880;2023-02-10T01:50:53;100954.72;;;34.55;30.09
72370;BME280;60343;-32.030;115.880;2023-02-10T01:53:31;100965.03;;;34.55;28.71
72370;BME280;60343;-32.030;115.880;2023-02-10T01:56:08;100974.19;;;34.55;29.17
72370;BME280;60343;-32.030;115.880;2023-02-10T01:58:44;100973.38;;;34.37;28.27
72370;BME280;60343;-32.030;115.880;2023-02-10T02:01:25;100965.69;;;34.09;28.51
72370;BME280;60343;-32.030;115.880;2023-02-10T02:04:01;100959.00;;;34.27;29.05
72370;BME280;60343;-32.030;115.880;2023-02-10T02:06:37;100958.84;;;34.23;29.24
72370;BME280;60343;-32.030;115.880;2023-02-10T02:09:13;100960.47;;;34.33;28.72
72370;BME280;60343;-32.030;115.880;2023-02-10T02:11:54;100956.56;;;34.34;28.85
72370;BME280;60343;-32.030;115.880;2023-02-10T02:14:38;100958.66;;;34.37;28.38
72370;BME280;60343;-32.030;115.880;2023-02-10T02:17:28;100954.75;;;34.21;28.17
72370;BME280;60343;-32.030;115.880;2023-02-10T02:20:33;100966.03;;;34.24;27.73
72370;BME280;60343;-32.030;115.880;2023-02-10T02:23:38;100962.94;;;34.34;27.79
72370;BME280;60343;-32.030;115.880;2023-02-10T02:26:33;100969.94;;;34.49;27.52
72370;BME280;60343;-32.030;115.880;2023-02-10T02:29:39;100971.75;;;34.28;27.74
72370;BME280;60343;-32.030;115.880;2023-02-10T02:32:27;100964.72;;;34.22;27.72
72370;BME280;60343;-32.030;115.880;2023-02-10T02:35:06;100973.97;;;33.91;29.23
72370;BME280;60343;-32.030;115.880;2023-02-10T02:37:45;100973.59;;;33.67;29.10
72370;BME280;60343;-32.030;115.880;2023-02-10T02:40:22;100969.81;;;33.63;29.34
72370;BME280;60343;-32.030;115.880;2023-02-10T02:42:57;100970.53;;;33.29;30.31
72370;BME280;60343;-32.030;115.880;2023-02-10T02:45:37;100964.22;;;33.15;31.05
72370;BME280;60343;-32.030;115.880;2023-02-10T02:48:44;100969.72;;;33.06;29.45
72370;BME280;60343;-32.030;115.880;2023-02-10T02:51:34;100959.44;;;32.76;29.79
72370;BME280;60343;-32.030;115.880;2023-02-10T02:54:25;100961.47;;;32.84;31.40
72370;BME280;60343;-32.030;115.880;2023-02-10T02:57:09;100959.72;;;32.66;33.74
72370;BME280;60343;-32.030;115.880;2023-02-10T02:59:49;100961.69;;;32.96;32.62
72370;BME280;60343;-32.030;115.880;2023-02-10T03:02:27;100955.03;;;32.75;31.58
72370;BME280;60343;-32.030;115.880;2023-02-10T03:05:09;100961.16;;;32.63;31.96
72370;BME280;60343;-32.030;115.880;2023-02-10T03:07:45;100955.97;;;32.26;32.88
72370;BME280;60343;-32.030;115.880;2023-02-10T03:10:23;100961.56;;;32.34;33.42
72370;BME280;60343;-32.030;115.880;2023-02-10T03:12:58;100958.56;;;32.22;33.45
72370;BME280;60343;-32.030;115.880;2023-02-10T03:15:34;100959.09;;;31.97;33.91
72370;BME280;60343;-32.030;115.880;2023-02-10T03:18:10;100949.47;;;31.94;33.94
72370;BME280;60343;-32.030;115.880;2023-02-10T03:20:53;100960.47;;;31.86;33.71
72370;BME280;60343;-32.030;115.880;2023-02-10T03:23:29;100953.31;;;31.71;34.28
72370;BME280;60343;-32.030;115.880;2023-02-10T03:26:05;100942.53;;;31.56;35.31
72370;BME280;60343;-32.030;115.880;2023-02-10T03:28:43;100943.16;;;31.53;35.48
72370;BME280;60343;-32.030;115.880;2023-02-10T03:31:18;100932.69;;;31.50;35.21
72370;BME280;60343;-32.030;115.880;2023-02-10T03:33:54;100942.56;;;31.42;36.33
72370;BME280;60343;-32.030;115.880;2023-02-10T03:36:35;100936.59;;;31.35;36.59
72370;BME280;60343;-32.030;115.880;2023-02-10T03:39:11;100930.47;;;31.38;36.79
72370;BME280;60343;-32.030;115.880;2023-02-10T03:41:46;100918.78;;;31.41;37.56
72370;BME280;60343;-32.030;115.880;2023-02-10T03:44:22;100928.69;;;31.56;37.16
72370;BME280;60343;-32.030;115.880;2023-02-10T03:46:57;100924.00;;;31.43;37.62
72370;BME280;60343;-32.030;115.880;2023-02-10T03:49:33;100922.97;;;31.66;37.63
72370;BME280;60343;-32.030;115.880;2023-02-10T03:52:15;100921.19;;;31.84;37.44
72370;BME280;60343;-32.030;115.880;2023-02-10T03:54:50;100919.31;;;31.93;36.97
72370;BME280;60343;-32.030;115.880;2023-02-10T03:57:35;100911.69;;;32.12;35.74
72370;BME280;60343;-32.030;115.880;2023-02-10T04:00:11;100902.66;;;32.07;37.16
72370;BME280;60343;-32.030;115.880;2023-02-10T04:02:47;100905.53;;;32.02;38.00
72370;BME280;60343;-32.030;115.880;2023-02-10T04:05:23;100908.44;;;31.97;38.03
72370;BME280;60343;-32.030;115.880;2023-02-10T04:08:05;100900.06;;;31.88;37.63
72370;BME280;60343;-32.030;115.880;2023-02-10T04:10:41;100906.34;;;32.16;37.60
72370;BME280;60343;-32.030;115.880;2023-02-10T04:13:16;100907.13;;;31.94;38.15
72370;BME280;60343;-32.030;115.880;2023-02-10T04:16:05;100906.09;;;31.90;38.45
72370;BME280;60343;-32.030;115.880;2023-02-10T04:18:41;100911.81;;;31.58;39.71
72370;BME280;60343;-32.030;115.880;2023-02-10T04:21:17;100903.78;;;31.70;38.79
72370;BME280;60343;-32.030;115.880;2023-02-10T04:23:59;100897.84;;;32.12;37.74
72370;BME280;60343;-32.030;115.880;2023-02-10T04:26:34;100895.94;;;32.21;38.12
72370;BME280;60343;-32.030;115.880;2023-02-10T04:29:13;100903.59;;;32.02;38.13
72370;BME280;60343;-32.030;115.880;2023-02-10T04:31:49;100913.09;;;31.87;39.25
72370;BME280;60343;-32.030;115.880;2023-02-10T04:34:26;100901.00;;;32.06;38.51
72370;BME280;60343;-32.030;115.880;2023-02-10T04:37:01;100905.91;;;31.86;38.68
72370;BME280;60343;-32.030;115.880;2023-02-10T04:39:43;100902.53;;;31.76;38.73
72370;BME280;60343;-32.030;115.880;2023-02-10T04:42:20;100896.28;;;31.84;38.24
72370;BME280;60343;-32.030;115.880;2023-02-10T04:44:57;100906.66;;;31.51;38.97
72370;BME280;60343;-32.030;115.880;2023-02-10T04:47:36;100906.84;;;31.54;38.27
72370;BME280;60343;-32.030;115.880;2023-02-10T04:50:11;100890.75;;;31.70;38.09
72370;BME280;60343;-32.030;115.880;2023-02-10T04:52:47;100895.78;;;31.54;38.27
72370;BME280;60343;-32.030;115.880;2023-02-10T04:55:32;100894.19;;;31.89;36.74
72370;BME280;60343;-32.030;115.880;2023-02-10T04:58:08;100894.31;;;32.20;35.98
72370;BME280;60343;-32.030;115.880;2023-02-10T05:00:43;100887.41;;;32.62;33.93
72370;BME280;60343;-32.030;115.880;2023-02-10T05:03:19;100880.25;;;32.92;33.58
72370;BME280;60343;-32.030;115.880;2023-02-10T05:05:55;100877.69;;;33.04;32.96
72370;BME280;60343;-32.030;115.880;2023-02-10T05:08:31;100884.69;;;33.02;32.73
72370;BME280;60343;-32.030;115.880;2023-02-10T05:11:16;100884.69;;;33.02;32.70
72370;BME280;60343;-32.030;115.880;2023-02-10T05:13:52;100884.13;;;32.60;33.49
72370;BME280;60343;-32.030;115.880;2023-02-10T05:16:28;100873.69;;;32.57;33.11
72370;BME280;60343;-32.030;115.880;2023-02-10T05:19:04;100882.47;;;32.28;34.33
72370;BME280;60343;-32.030;115.880;2023-02-10T05:21:40;100889.31;;;32.09;35.14
72370;BME280;60343;-32.030;115.880;2023-02-10T05:24:16;100899.88;;;32.07;35.12
72370;BME280;60343;-32.030;115.880;2023-02-10T05:26:58;100895.59;;;32.01;35.26
72370;BME280;60343;-32.030;115.880;2023-02-10T05:29:34;100907.53;;;31.87;36.14
72370;BME280;60343;-32.030;115.880;2023-02-10T05:32:09;100891.81;;;31.97;35.77
72370;BME280;60343;-32.030;115.880;2023-02-10T05:34:45;100903.63;;;32.24;34.62
72370;BME280;60343;-32.030;115.880;2023-02-10T05:37:20;100900.31;;;32.00;35.70
72370;BME280;60343;-32.030;115.880;2023-02-10T05:39:56;100892.75;;;31.92;33.83
72370;BME280;60343;-32.030;115.880;2023-02-10T05:42:39;100902.13;;;31.55;34.39
72370;BME280;60343;-32.030;115.880;2023-02-10T05:45:15;100905.84;;;31.64;33.47
72370;BME280;60343;-32.030;115.880;2023-02-10T05:47:50;100897.34;;;31.47;33.59
72370;BME280;60343;-32.030;115.880;2023-02-10T05:50:26;100901.31;;;31.54;33.52
72370;BME280;60343;-32.030;115.880;2023-02-10T05:53:01;100896.22;;;31.62;34.29
72370;BME280;60343;-32.030;115.880;2023-02-10T05:55:40;100900.53;;;31.68;32.82
72370;BME280;60343;-32.030;115.880;2023-02-10T05:58:22;100891.03;;;31.82;32.02
72370;BME280;60343;-32.030;115.880;2023-02-10T06:01:00;100882.81;;;31.91;31.01
72370;BME280;60343;-32.030;115.880;2023-02-10T06:03:37;100882.22;;;32.16;31.22
72370;BME280;60343;-32.030;115.880;2023-02-10T06:06:15;100889.06;;;32.63;31.18
72370;BME280;60343;-32.030;115.880;2023-02-10T06:08:51;100890.72;;;32.42;30.56
72370;BME280;60343;-32.030;115.880;2023-02-10T06:11:27;100878.88;;;32.81;30.24
72370;BME280;60343;-32.030;115.880;2023-02-10T06:14:09;100887.06;;;32.33;28.08
72370;BME280;60343;-32.030;115.880;2023-02-10T06:16:44;100888.91;;;32.02;29.64
72370;BME280;60343;-32.030;115.880;2023-02-10T06:19:22;100892.06;;;32.22;29.34
72370;BME280;60343;-32.030;115.880;2023-02-10T06:21:57;100887.22;;;31.92;30.57
72370;BME280;60343;-32.030;115.880;2023-02-10T06:24:33;100886.50;;;32.22;31.35
72370;BME280;60343;-32.030;115.880;2023-02-10T06:27:09;100882.22;;;32.39;31.57
72370;BME280;60343;-32.030;115.880;2023-02-10T06:29:53;100874.59;;;32.44;31.42
72370;BME280;60343;-32.030;115.880;2023-02-10T06:32:30;100890.09;;;32.09;32.02
72370;BME280;60343;-32.030;115.880;2023-02-10T06:35:06;100884.09;;;32.07;32.16
72370;BME280;60343;-32.030;115.880;2023-02-10T06:37:42;100885.09;;;31.89;32.97
72370;BME280;60343;-32.030;115.880;2023-02-10T06:40:18;100885.31;;;32.01;33.30
72370;BME280;60343;-32.030;115.880;2023-02-10T06:42:54;100886.69;;;31.68;33.42
72370;BME280;60343;-32.030;115.880;2023-02-10T06:45:36;100896.22;;;31.62;33.52
72370;BME280;60343;-32.030;115.880;2023-02-10T06:48:11;100897.47;;;31.28;34.30
72370;BME280;60343;-32.030;115.880;2023-02-10T06:50:50;100898.88;;;30.98;35.48
72370;BME280;60343;-32.030;115.880;2023-02-10T06:53:27;100900.34;;;31.23;36.10
72370;BME280;60343;-32.030;115.880;2023-02-10T06:56:04;100904.34;;;31.17;35.61
72370;BME280;60343;-32.030;115.880;2023-02-10T06:58:39;100907.13;;;30.85;36.52
72370;BME280;60343;-32.030;115.880;2023-02-10T07:01:21;100917.06;;;30.72;36.67
72370;BME280;60343;-32.030;115.880;2023-02-10T07:03:57;100906.34;;;30.98;36.81
72370;BME280;60343;-32.030;115.880;2023-02-10T07:06:33;100908.94;;;31.08;36.28
72370;BME280;60343;-32.030;115.880;2023-02-10T07:09:09;100903.44;;;30.89;36.18
72370;BME280;60343;-32.030;115.880;2023-02-10T07:11:45;100909.59;;;30.73;37.07
72370;BME280;60343;-32.030;115.880;2023-02-10T07:14:22;100902.31;;;30.77;36.88
72370;BME280;60343;-32.030;115.880;2023-02-10T07:17:07;100905.28;;;30.66;37.03
72370;BME280;60343;-32.030;115.880;2023-02-10T07:19:43;100907.84;;;30.77;37.67
72370;BME280;60343;-32.030;115.880;2023-02-10T07:22:20;100907.09;;;30.57;37.03
72370;BME280;60343;-32.030;115.880;2023-02-10T07:24:57;100912.03;;;30.74;37.60
72370;BME280;60343;-32.030;115.880;2023-02-10T07:27:32;100919.19;;;30.61;37.38
72370;BME280;60343;-32.030;115.880;2023-02-10T07:30:09;100907.34;;;30.42;37.89
72370;BME280;60343;-32.030;115.880;2023-02-10T07:32:51;100905.13;;;31.04;37.81
72370;BME280;60343;-32.030;115.880;2023-02-10T07:35:27;100913.66;;;31.21;37.05
72370;BME280;60343;-32.030;115.880;2023-02-10T07:38:03;100917.69;;;30.83;37.01
72370;BME280;60343;-32.030;115.880;2023-02-10T07:40:39;100908.16;;;30.43;38.02
72370;BME280;60343;-32.030;115.880;2023-02-10T07:43:14;100915.81;;;30.46;37.90
72370;BME280;60343;-32.030;115.880;2023-02-10T07:45:53;100918.31;;;30.28;39.01
72370;BME280;60343;-32.030;115.880;2023-02-10T07:48:34;100919.09;;;29.97;39.84
72370;BME280;60343;-32.030;115.880;2023-02-10T07:51:13;100921.66;;;29.88;39.98
72370;BME280;60343;-32.030;115.880;2023-02-10T07:53:50;100920.00;;;29.68;40.85
72370;BME280;60343;-32.030;115.880;2023-02-10T07:56:29;100922.78;;;29.68;40.52
72370;BME280;60343;-32.030;115.880;2023-02-10T07:59:04;100919.44;;;29.71;41.00
72370;BME280;60343;-32.030;115.880;2023-02-10T08:01:42;100933.81;;;29.68;41.70
72370;BME280;60343;-32.030;115.880;2023-02-10T08:04:24;100907.94;;;29.64;41.47
72370;BME280;60343;-32.030;115.880;2023-02-10T08:06:59;100912.19;;;29.33;42.72
72370;BME280;60343;-32.030;115.880;2023-02-10T08:09:35;100924.56;;;29.12;43.77
72370;BME280;60343;-32.030;115.880;2023-02-10T08:12:12;100929.94;;;28.98;44.17
72370;BME280;60343;-32.030;115.880;2023-02-10T08:14:47;100933.22;;;28.71;45.15
72370;BME280;60343;-32.030;115.880;2023-02-10T08:17:27;100925.16;;;28.51;45.58
72370;BME280;60343;-32.030;115.880;2023-02-10T08:20:09;100926.09;;;28.36;46.42
72370;BME280;60343;-32.030;115.880;2023-02-10T08:22:55;100932.09;;;27.99;48.02
72370;BME280;60343;-32.030;115.880;2023-02-10T08:25:30;100935.00;;;27.74;48.31
72370;BME280;60343;-32.030;115.880;2023-02-10T08:28:06;100939.22;;;27.56;49.11
72370;BME280;60343;-32.030;115.880;2023-02-10T08:30:42;100947.59;;;27.21;49.56
72370;BME280;60343;-32.030;115.880;2023-02-10T08:33:17;100929.19;;;27.01;50.52
72370;BME280;60343;-32.030;115.880;2023-02-10T08:36:02;100947.91;;;26.79;51.40
72370;BME280;60343;-32.030;115.880;2023-02-10T08:38:38;100931.41;;;26.79;51.53
72370;BME280;60343;-32.030;115.880;2023-02-10T08:41:13;100950.66;;;26.89;50.98
72370;BME280;60343;-32.030;115.880;2023-02-10T08:43:51;100941.31;;;26.80;51.27
72370;BME280;60343;-32.030;115.880;2023-02-10T08:46:29;100944.59;;;26.72;51.87
72370;BME280;60343;-32.030;115.880;2023-02-10T08:49:06;100944.59;;;26.72;51.43
72370;BME280;60343;-32.030;115.880;2023-02-10T08:51:48;100935.81;;;26.60;51.22
72370;BME280;60343;-32.030;115.880;2023-02-10T08:54:24;100949.56;;;26.65;52.03
72370;BME280;60343;-32.030;115.880;2023-02-10T08:56:59;100943.22;;;26.74;50.93
72370;BME280;60343;-32.030;115.880;2023-02-10T08:59:36;100938.84;;;26.68;50.80
72370;BME280;60343;-32.030;115.880;2023-02-10T09:02:12;100948.16;;;26.57;49.98
72370;BME280;60343;-32.030;115.880;2023-02-10T09:04:48;100957.81;;;26.55;50.32
72370;BME280;60343;-32.030;115.880;2023-02-10T09:07:34;100951.75;;;26.63;50.33
72370;BME280;60343;-32.030;115.880;2023-02-10T09:10:10;100957.50;;;26.56;50.85
72370;BME280;60343;-32.030;115.880;2023-02-10T09:12:46;100961.06;;;26.41;51.51
72370;BME280;60343;-32.030;115.880;2023-02-10T09:15:22;100969.78;;;26.13;53.14
72370;BME280;60343;-32.030;115.880;2023-02-10T09:17:58;100967.59;;;26.10;53.32
72370;BME280;60343;-32.030;115.880;2023-02-10T09:20:34;100964.56;;;26.06;53.33
72370;BME280;60343;-32.030;115.880;2023-02-10T09:23:17;100970.03;;;26.06;53.84
72370;BME280;60343;-32.030;115.880;2023-02-10T09:25:59;100977.44;;;26.01;54.00
72370;BME280;60343;-32.030;115.880;2023-02-10T09:28:35;100972.75;;;25.96;53.57
72370;BME280;60343;-32.030;115.880;2023-02-10T09:31:14;100981.56;;;25.98;53.55
72370;BME280;60343;-32.030;115.880;2023-02-10T09:33:55;100987.78;;;25.74;53.71
72370;BME280;60343;-32.030;115.880;2023-02-10T09:36:31;100992.72;;;25.77;53.70
72370;BME280;60343;-32.030;115.880;2023-02-10T09:39:12;100997.09;;;25.68;54.38
72370;BME280;60343;-32.030;115.880;2023-02-10T09:41:55;101001.25;;;25.75;54.57
72370;BME280;60343;-32.030;115.880;2023-02-10T09:44:34;101000.44;;;25.80;53.41
72370;BME280;60343;-32.030;115.880;2023-02-10T09:47:32;100997.28;;;25.56;53.24
72370;BME280;60343;-32.030;115.880;2023-02-10T09:50:31;101010.06;;;25.40;53.32
72370;BME280;60343;-32.030;115.880;2023-02-10T09:53:13;101017.16;;;25.36;54.27
72370;BME280;60343;-32.030;115.880;2023-02-10T09:56:02;101021.56;;;25.37;54.44
72370;BME280;60343;-32.030;115.880;2023-02-10T09:58:40;101018.50;;;25.29;53.99
72370;BME280;60343;-32.030;115.880;2023-02-10T10:01:21;101012.50;;;25.32;53.11
72370;BME280;60343;-32.030;115.880;2023-02-10T10:04:01;101013.31;;;25.32;54.78
72370;BME280;60343;-32.030;115.880;2023-02-10T10:06:41;101011.91;;;25.25;54.98
72370;BME280;60343;-32.030;115.880;2023-02-10T10:09:29;101015.88;;;25.07;56.12
72370;BME280;60343;-32.030;115.880;2023-02-10T10:12:17;101022.53;;;24.84;56.49
72370;BME280;60343;-32.030;115.880;2023-02-10T10:14:53;101018.59;;;24.75;57.64
72370;BME280;60343;-32.030;115.880;2023-02-10T10:17:46;101017.63;;;24.54;58.52
72370;BME280;60343;-32.030;115.880;2023-02-10T10:23:58;101028.03;;;24.30;60.24
72370;BME280;60343;-32.030;115.880;2023-02-10T10:26:50;101033.16;;;24.22;60.20
72370;BME280;60343;-32.030;115.880;2023-02-10T10:29:43;101030.47;;;24.05;60.31
72370;BME280;60343;-32.030;115.880;2023-02-10T10:32:35;101039.66;;;23.94;60.78
72370;BME280;60343;-32.030;115.880;2023-02-10T10:35:18;101034.44;;;23.92;60.58
72370;BME280;60343;-32.030;115.880;2023-02-10T10:37:56;101048.28;;;23.86;60.63
72370;BME280;60343;-32.030;115.880;2023-02-10T10:40:33;101052.31;;;23.78;60.40
72370;BME280;60343;-32.030;115.880;2023-02-10T10:43:09;101059.41;;;23.79;60.60
72370;BME280;60343;-32.030;115.880;2023-02-10T10:45:59;101051.97;;;23.75;60.85
72370;BME280;60343;-32.030;115.880;2023-02-10T10:48:40;101051.13;;;23.74;60.83
72370;BME280;60343;-32.030;115.880;2023-02-10T10:51:17;101055.16;;;23.67;61.39
72370;BME280;60343;-32.030;115.880;2023-02-10T10:53:55;101061.31;;;23.57;61.78
72370;BME280;60343;-32.030;115.880;2023-02-10T10:56:35;101059.94;;;23.60;61.91
72370;BME280;60343;-32.030;115.880;2023-02-10T10:59:20;101065.69;;;23.58;61.81
72370;BME280;60343;-32.030;115.880;2023-02-10T11:02:13;101070.19;;;23.47;62.03
72370;BME280;60343;-32.030;115.880;2023-02-10T11:05:02;101071.06;;;23.36;62.55
72370;BME280;60343;-32.030;115.880;2023-02-10T11:07:38;101074.81;;;23.30;62.98
72370;BME280;60343;-32.030;115.880;2023-02-10T11:10:23;101072.81;;;23.26;62.88
72370;BME280;60343;-32.030;115.880;2023-02-10T11:13:01;101074.16;;;23.23;63.29
72370;BME280;60343;-32.030;115.880;2023-02-10T11:15:41;101083.59;;;23.16;63.65
72370;BME280;60343;-32.030;115.880;2023-02-10T11:18:24;101081.75;;;23.04;63.58
72370;BME280;60343;-32.030;115.880;2023-02-10T11:21:01;101081.38;;;23.13;63.53
72370;BME280;60343;-32.030;115.880;2023-02-10T11:23:48;101093.88;;;23.08;63.55
72370;BME280;60343;-32.030;115.880;2023-02-10T11:26:26;101089.94;;;23.04;64.13
72370;BME280;60343;-32.030;115.880;2023-02-10T11:29:10;101087.13;;;22.99;64.62
72370;BME280;60343;-32.030;115.880;2023-02-10T11:31:46;101095.31;;;22.99;64.48
72370;BME280;60343;-32.030;115.880;2023-02-10T11:34:29;101094.09;;;22.90;64.97
72370;BME280;60343;-32.030;115.880;2023-02-10T11:37:16;101098.88;;;22.83;65.15
72370;BME280;60343;-32.030;115.880;2023-02-10T11:39:55;101092.59;;;22.83;65.05
72370;BME280;60343;-32.030;115.880;2023-02-10T11:42:34;101103.44;;;22.78;65.87
72370;BME280;60343;-32.030;115.880;2023-02-10T11:45:19;101113.25;;;22.79;66.12
72370;BME280;60343;-32.030;115.880;2023-02-10T11:48:03;101123.94;;;22.68;66.67
72370;BME280;60343;-32.030;115.880;2023-02-10T11:50:47;101121.50;;;22.67;66.67
72370;BME280;60343;-32.030;115.880;2023-02-10T11:53:25;101119.50;;;22.62;67.13
72370;BME280;60343;-32.030;115.880;2023-02-10T11:56:05;101129.06;;;22.65;67.17
72370;BME280;60343;-32.030;115.880;2023-02-10T11:58:59;101133.38;;;22.61;67.03
72370;BME280;60343;-32.030;115.880;2023-02-10T12:01:46;101128.41;;;22.58;67.18
72370;BME280;60343;-32.030;115.880;2023-02-10T12:04:50;101126.38;;;22.53;67.40
72370;BME280;60343;-32.030;115.880;2023-02-10T12:07:41;101132.56;;;22.49;67.29
72370;BME280;60343;-32.030;115.880;2023-02-10T12:10:29;101139.59;;;22.45;67.30
72370;BME280;60343;-32.030;115.880;2023-02-10T12:13:18;101136.31;;;22.43;67.39
72370;BME280;60343;-32.030;115.880;2023-02-10T12:16:05;101145.78;;;22.40;67.45
72370;BME280;60343;-32.030;115.880;2023-02-10T12:18:55;101145.44;;;22.37;67.63
72370;BME280;60343;-32.030;115.880;2023-02-10T12:21:59;101158.38;;;22.30;67.68
72370;BME280;60343;-32.030;115.880;2023-02-10T12:24:58;101161.00;;;22.24;68.04
72370;BME280;60343;-32.030;115.880;2023-02-10T12:27:51;101165.88;;;22.22;67.74
72370;BME280;60343;-32.030;115.880;2023-02-10T12:30:40;101160.06;;;22.19;67.67
72370;BME280;60343;-32.030;115.880;2023-02-10T12:33:34;101168.00;;;22.20;67.57
72370;BME280;60343;-32.030;115.880;2023-02-10T12:36:17;101169.06;;;22.19;67.46
72370;BME280;60343;-32.030;115.880;2023-02-10T12:39:12;101171.47;;;22.16;67.81
72370;BME280;60343;-32.030;115.880;2023-02-10T12:42:02;101171.69;;;22.14;67.54
72370;BME280;60343;-32.030;115.880;2023-02-10T12:44:53;101187.81;;;22.16;67.65
72370;BME280;60343;-32.030;115.880;2023-02-10T12:47:41;101188.22;;;22.08;67.50
72370;BME280;60343;-32.030;115.880;2023-02-10T12:50:40;101189.59;;;22.10;67.13
72370;BME280;60343;-32.030;115.880;2023-02-10T12:53:31;101199.22;;;22.13;67.16
72370;BME280;60343;-32.030;115.880;2023-02-10T12:56:11;101200.91;;;22.02;67.32
72370;BME280;60343;-32.030;115.880;2023-02-10T12:59:04;101195.44;;;22.02;66.86
72370;BME280;60343;-32.030;115.880;2023-02-10T13:01:45;101206.06;;;21.92;67.50
72370;BME280;60343;-32.030;115.880;2023-02-10T13:04:27;101200.41;;;21.94;67.20
72370;BME280;60343;-32.030;115.880;2023-02-10T13:07:12;101200.50;;;21.99;67.00
72370;BME280;60343;-32.030;115.880;2023-02-10T13:09:54;101199.09;;;21.96;67.51
72370;BME280;60343;-32.030;115.880;2023-02-10T13:12:34;101207.72;;;21.93;67.05
72370;BME280;60343;-32.030;115.880;2023-02-10T13:15:24;101204.19;;;21.93;67.21
72370;BME280;60343;-32.030;115.880;2023-02-10T13:18:01;101205.63;;;21.95;67.19
72370;BME280;60343;-32.030;115.880;2023-02-10T13:20:44;101212.38;;;21.93;67.07
72370;BME280;60343;-32.030;115.880;2023-02-10T13:23:47;101220.31;;;21.82;67.15
72370;BME280;60343;-32.030;115.880;2023-02-10T13:26:55;101207.84;;;21.87;67.03
72370;BME280;60343;-32.030;115.880;2023-02-10T13:29:41;101215.31;;;21.79;67.35